Hope, AK (99605)

5:20 AM AKDT on March 29, 2017 (GMT -0800)
MAU633 | | Change Station

Elev 747 ft 61.06 °N, 149.78 °W | Updated 7 minutes ago

Snow
Snow
26.0 °F
Feels Like 26 °F
N
0.0
Wind Variable Wind from North
Gusts 0.0 mph

Today
High -- | Low -- °F
--% Chance of Precip.
Yesterday
High -- | Low -- °F
Precip. -- in
Pressure 29.51 in
Visibility 0.5 miles
Clouds
Windchill 26 °F
Dew Point 25 °F
Humidity 94%
Rainfall 0.53 in
Snow Depth Not available.
7:30 AM 8:37 PM
Waxing Crescent, 3% visible
METAR PANC 291253Z 22005KT 1/2SM R07R/5000V5500FT SN VV009 M02/M03 A2950 RMK SLP992 P0007 T10221028 VIA AUTODIAL
Pressure 29.51 in
Visibility 0.5 miles
Clouds
Windchill 26 °F
Dew Point 25 °F
Humidity 94%
Rainfall 0.53 in
Snow Depth Not available.
7:30 AM 8:37 PM
Waxing Crescent, 3% visible
METAR PANC 291253Z 22005KT 1/2SM R07R/5000V5500FT SN VV009 M02/M03 A2950 RMK SLP992 P0007 T10221028 VIA AUTODIAL

Get Severe Weather Alerts

Thanks for signing up!

Be on the lookout for a verification email in your inbox.

You'll start receiving the daily forecast at 8 AM.

×

10-Day Weather Forecast

Almanac

Astronomy

Mar. 29, 2017 Rise Set
Actual Time
Civil Twilight
Nautical Twilight
Astronomical Twilight
Moon
Length of Visible Light
Length of Day
Tomorrow will be .
, % of the Moon is Illuminated

Today's Extremes

State Highs State Lows

Community

WunderPhotos

Upload Photos

1,962,540 photos uploaded!

WunderBlog® & News

Nearby

Air Quality

  Air Quality AQ Index Pollutant
Not available.

Snow Depth

Station Depth Elevation

Earthquake Activity

City Distance Mag. Time & Date
Minimum magnitude displayed is 2.5.

Earthquake Activity

City Distance Mag. Time & Date
Minimum magnitude displayed is 2.5.

Coastal Water Temperatures

Place Temperature

Stations

Nearby Weather Stations

Station Location Temp. Windchill Dew Point Humidity Wind Precip. Elev Updated Type
                   

Watches & Warnings

There are currently no watches in effect.